Time;durP1;ratioP1;P1;durP2;ratioP2;P2;SDS_P1;SDS_P2;PMS_P1;PMS_P2;Temp;Humidity;BMP_temperature;BMP_pressure;BME280_temperature;BME280_humidity;BME280_pressure;Samples;Min_cycle;Max_cycle;Signal;HPM_P1;HPM_P2
2022/08/25 00:02:19;;;;;;;6.75;5.10;;;;;;;21.26;80.94;101532.53;5048993;28;20017;-77
2022/08/25 00:04:44;;;;;;;7.53;5.68;;;;;;;21.14;81.46;101526.59;5048730;28;20032;-78
2022/08/25 00:07:11;;;;;;;5.90;5.38;;;;;;;21.19;81.20;101528.78;5049423;28;20470;-76
2022/08/25 00:09:36;;;;;;;7.05;5.78;;;;;;;21.16;81.51;101529.94;5046651;28;20040;-76
2022/08/25 00:12:03;;;;;;;6.68;5.95;;;;;;;21.08;81.85;101527.28;5049693;28;20025;-76
2022/08/25 00:14:34;;;;;;;6.70;6.05;;;;;;;21.00;82.56;101529.09;5049002;28;20025;-76
2022/08/25 00:17:00;;;;;;;7.00;6.32;;;;;;;20.89;83.10;101530.25;5047680;28;20062;-77
2022/08/25 00:19:30;;;;;;;7.93;6.32;;;;;;;20.87;83.05;101534.94;5080652;28;20570;-76
2022/08/25 00:21:56;;;;;;;7.00;5.85;;;;;;;20.82;83.22;101532.75;5043572;28;20108;-75
2022/08/25 00:24:23;;;;;;;9.43;6.38;;;;;;;20.73;83.74;101524.84;5046115;28;20522;-77
2022/08/25 00:26:52;;;;;;;6.95;5.97;;;;;;;20.73;84.26;101522.19;5048673;28;20402;-76
2022/08/25 00:29:18;;;;;;;8.57;6.28;;;;;;;20.68;84.74;101529.84;5048051;28;20029;-77
2022/08/25 00:31:44;;;;;;;7.70;6.03;;;;;;;20.65;83.77;101521.16;5047218;28;20021;-79
2022/08/25 00:34:20;;;;;;;8.35;6.22;;;;;;;20.63;84.20;101523.16;5045283;28;20033;-77
2022/08/25 00:36:46;;;;;;;7.15;6.38;;;;;;;20.60;83.88;101533.34;5046762;28;20047;-78
2022/08/25 00:39:11;;;;;;;7.13;6.43;;;;;;;20.52;85.16;101528.81;5047300;28;20407;-78
2022/08/25 00:41:39;;;;;;;8.15;6.28;;;;;;;20.49;85.18;101522.94;5048706;28;20450;-78
2022/08/25 00:44:07;;;;;;;6.55;5.95;;;;;;;20.51;84.77;101535.16;5045642;28;20064;-78
2022/08/25 00:46:59;;;;;;;6.93;6.32;;;;;;;20.44;85.31;101531.47;5045838;28;20111;-78
2022/08/25 00:49:46;;;;;;;7.00;6.30;;;;;;;20.53;83.94;101532.31;5047182;28;20025;-78
2022/08/25 00:52:17;;;;;;;7.03;6.43;;;;;;;20.42;84.85;101529.94;5037645;28;20052;-78
2022/08/25 00:54:53;;;;;;;7.13;6.40;;;;;;;20.45;84.45;101530.47;5046042;28;20032;-78
2022/08/25 00:57:23;;;;;;;7.57;6.97;;;;;;;20.34;85.35;101520.00;5045246;28;20103;-77
2022/08/25 00:59:49;;;;;;;7.00;6.38;;;;;;;20.35;85.33;101519.84;5043396;28;20053;-78
2022/08/25 01:02:15;;;;;;;9.77;6.95;;;;;;;20.31;85.62;101523.84;5045949;28;20677;-78
2022/08/25 01:04:43;;;;;;;7.10;6.43;;;;;;;20.28;85.97;101534.00;5048293;28;20494;-78
2022/08/25 01:07:08;;;;;;;8.13;7.32;;;;;;;20.20;86.20;101525.97;5044729;28;20025;-78
2022/08/25 01:09:34;;;;;;;8.80;7.43;;;;;;;20.15;86.56;101522.94;5048400;28;20437;-79
2022/08/25 01:12:00;;;;;;;7.85;7.05;;;;;;;20.19;85.86;101517.09;5046679;28;20091;-77
2022/08/25 01:14:30;;;;;;;8.43;7.65;;;;;;;20.16;86.38;101522.78;5033017;28;20036;-77
2022/08/25 01:16:56;;;;;;;8.75;7.75;;;;;;;20.13;86.45;101520.41;5049589;28;20482;-77
2022/08/25 01:19:23;;;;;;;12.68;10.35;;;;;;;20.16;87.02;101522.78;5051017;28;20116;-75
2022/08/25 01:21:54;;;;;;;12.20;10.23;;;;;;;20.19;86.84;101519.78;5053578;28;20397;-77
2022/08/25 01:24:58;;;;;;;11.88;10.68;;;;;;;20.24;85.18;101516.63;5051761;28;20028;-76
2022/08/25 01:27:23;;;;;;;12.77;10.80;;;;;;;20.20;86.26;101523.28;5033460;28;20451;-76
2022/08/25 01:29:49;;;;;;;11.45;10.25;;;;;;;20.19;86.21;101518.94;5052087;28;20100;-76
2022/08/25 01:32:14;;;;;;;11.30;10.27;;;;;;;20.18;85.87;101522.59;5051900;28;20028;-76
2022/08/25 01:34:43;;;;;;;13.40;10.80;;;;;;;20.18;85.47;101519.94;5051705;28;20029;-77
2022/08/25 01:37:11;;;;;;;12.15;10.93;;;;;;;20.17;85.17;101521.78;5050643;28;20025;-78
2022/08/25 01:39:36;;;;;;;11.70;10.15;;;;;;;20.18;85.64;101519.94;5050635;28;20021;-78
2022/08/25 01:42:08;;;;;;;9.90;8.90;;;;;;;20.08;84.96;101521.91;5048879;28;20474;-78
2022/08/25 01:44:40;;;;;;;11.35;10.18;;;;;;;20.05;85.60;101519.53;5050283;28;20072;-77
2022/08/25 01:47:06;;;;;;;10.98;9.82;;;;;;;20.05;84.96;101516.88;5045389;28;20017;-78
2022/08/25 01:49:32;;;;;;;10.65;9.65;;;;;;;19.98;85.31;101522.81;5049700;28;20071;-77
2022/08/25 01:52:10;;;;;;;10.85;9.77;;;;;;;19.98;84.77;101520.16;5048451;28;20025;-78
2022/08/25 01:54:35;;;;;;;10.38;9.32;;;;;;;19.97;84.74;101512.28;5050616;28;20063;-77
2022/08/25 01:57:00;;;;;;;11.18;10.10;;;;;;;19.98;84.65;101512.13;5050680;28;20059;-78
2022/08/25 01:59:26;;;;;;;10.00;9.10;;;;;;;19.94;84.90;101510.78;5049450;28;20075;-78
2022/08/25 02:01:54;;;;;;;9.93;9.02;;;;;;;19.93;85.37;101514.44;5050336;28;20040;-78
2022/08/25 02:04:20;;;;;;;10.15;9.25;;;;;;;19.84;84.76;101518.06;5049139;28;20032;-78
2022/08/25 02:06:46;;;;;;;12.90;9.95;;;;;;;19.89;84.37;101514.91;5082610;28;20033;-78
2022/08/25 02:09:14;;;;;;;11.70;9.23;;;;;;;19.86;84.64;101518.75;5049142;28;20810;-77
2022/08/25 02:11:42;;;;;;;10.80;9.80;;;;;;;19.86;84.23;101518.75;5031308;28;20024;-76
2022/08/25 02:14:10;;;;;;;10.32;9.40;;;;;;;19.84;84.25;101515.41;5036290;28;20504;-76
2022/08/25 02:16:38;;;;;;;9.75;8.82;;;;;;;19.82;84.31;101514.72;5051138;28;20033;-76
2022/08/25 02:19:06;;;;;;;11.45;9.52;;;;;;;19.76;84.28;101523.38;5049823;28;20039;-76
2022/08/25 02:21:31;;;;;;;12.18;8.52;;;;;;;19.75;84.66;101510.16;5049219;28;20479;-76
2022/08/25 02:23:57;;;;;;;12.73;8.98;;;;;;;19.76;84.13;101509.19;5049092;28;20068;-76
2022/08/25 02:26:22;;;;;;;11.48;9.38;;;;;;;19.73;83.76;101507.66;5052185;28;20082;-76
2022/08/25 02:28:50;;;;;;;11.10;10.00;;;;;;;19.71;83.64;101504.31;5051029;28;20029;-76
2022/08/25 02:31:18;;;;;;;15.30;9.50;;;;;;;19.65;83.99;101515.63;5050293;28;20798;-76
2022/08/25 02:33:43;;;;;;;9.75;8.80;;;;;;;19.58;84.21;101504.69;5050606;28;20028;-76
2022/08/25 02:36:09;;;;;;;10.75;8.85;;;;;;;19.57;84.06;101503.03;5048582;28;20029;-76
2022/08/25 02:38:35;;;;;;;10.85;9.43;;;;;;;19.62;83.59;101510.59;5046169;28;20020;-76
2022/08/25 02:41:11;;;;;;;12.75;9.32;;;;;;;19.58;83.83;101509.19;5049542;28;20021;-76
2022/08/25 02:43:37;;;;;;;10.32;9.30;;;;;;;19.57;83.52;101512.88;5042474;28;20073;-76
2022/08/25 02:46:03;;;;;;;9.80;8.80;;;;;;;19.56;83.20;101511.19;5048216;28;20028;-76
2022/08/25 02:48:29;;;;;;;9.68;8.60;;;;;;;19.50;83.53;101511.78;5049471;28;20025;-76
2022/08/25 02:50:59;;;;;;;9.73;8.55;;;;;;;19.44;83.91;101512.41;5049112;28;20035;-78
2022/08/25 02:53:26;;;;;;;9.43;7.93;;;;;;;19.45;83.60;101498.91;5047483;28;20479;-76
2022/08/25 02:55:51;;;;;;;8.85;8.02;;;;;;;19.37;83.74;101502.34;5049243;28;20553;-77
2022/08/25 02:58:17;;;;;;;8.85;7.97;;;;;;;19.37;84.03;101502.34;5046425;28;20030;-77
2022/08/25 03:00:42;;;;;;;9.13;8.30;;;;;;;19.35;83.78;101496.34;5048546;28;20017;-77
2022/08/25 03:03:08;;;;;;;9.65;8.65;;;;;;;19.30;83.95;101493.28;5049425;28;20036;-78
2022/08/25 03:05:33;;;;;;;9.82;8.25;;;;;;;19.24;84.35;101495.75;5045901;28;20039;-77
2022/08/25 03:07:59;;;;;;;9.82;8.80;;;;;;;19.27;83.82;101498.94;5047278;28;20543;-76
2022/08/25 03:10:25;;;;;;;11.10;8.75;;;;;;;19.16;84.67;101493.81;5049833;28;20033;-77
2022/08/25 03:12:50;;;;;;;9.68;8.52;;;;;;;19.15;84.42;101493.97;5046218;28;20035;-77
2022/08/25 03:15:16;;;;;;;9.45;8.50;;;;;;;19.05;84.43;101481.56;5047625;28;20017;-78
2022/08/25 03:17:43;;;;;;;9.70;7.82;;;;;;;19.09;84.01;101487.44;5047660;28;20021;-78
2022/08/25 03:20:09;;;;;;;12.55;8.65;;;;;;;19.07;83.37;101484.91;5045426;28;20036;-78
2022/08/25 03:22:35;;;;;;;10.02;8.18;;;;;;;19.02;83.88;101484.53;5049846;28;20390;-77
2022/08/25 03:27:45;;;;;;;8.82;8.00;;;;;;;18.98;83.22;101479.66;5050557;28;20117;-77
2022/08/25 03:30:12;;;;;;;11.93;7.95;;;;;;;18.95;83.34;101479.97;5048354;28;20386;-78
2022/08/25 03:32:37;;;;;;;10.20;8.00;;;;;;;18.94;83.51;101486.28;5046597;28;20112;-78
2022/08/25 03:35:03;;;;;;;11.45;8.20;;;;;;;18.91;83.55;101473.25;5049397;28;20091;-78
2022/08/25 03:37:29;;;;;;;10.05;8.35;;;;;;;18.81;83.40;101478.66;5048551;28;20013;-78
2022/08/25 03:39:54;;;;;;;9.70;8.35;;;;;;;18.75;83.72;101477.44;5046896;28;20074;-77
2022/08/25 03:42:19;;;;;;;9.65;7.97;;;;;;;18.77;83.68;101478.13;5048928;28;20036;-78
2022/08/25 03:44:45;;;;;;;8.70;7.80;;;;;;;18.73;82.94;101471.41;5050549;28;20044;-79
2022/08/25 03:47:10;;;;;;;9.57;7.93;;;;;;;18.71;82.80;101472.56;5049373;28;20068;-79
2022/08/25 03:49:35;;;;;;;13.23;8.30;;;;;;;18.69;83.03;101475.38;5049152;28;20658;-78
2022/08/25 03:52:01;;;;;;;13.10;8.38;;;;;;;18.62;83.21;101468.97;5047483;28;20051;-77
2022/08/25 03:54:27;;;;;;;12.07;8.43;;;;;;;18.61;83.17;101472.59;5047435;28;20074;-77
2022/08/25 03:56:53;;;;;;;10.20;7.90;;;;;;;18.60;83.18;101462.91;5047357;28;20025;-77
2022/08/25 03:59:18;;;;;;;10.80;7.75;;;;;;;18.59;83.19;101458.56;5047575;28;20021;-78
2022/08/25 04:01:45;;;;;;;9.50;7.88;;;;;;;18.52;83.19;101462.00;5047027;28;20429;-78
2022/08/25 04:04:11;;;;;;;9.63;7.70;;;;;;;18.53;83.28;101458.34;5046890;28;20029;-77
2022/08/25 04:06:38;;;;;;;9.48;7.68;;;;;;;18.50;82.31;101453.31;5047468;28;20033;-77
2022/08/25 04:09:04;;;;;;;8.60;7.70;;;;;;;18.46;82.50;101452.78;5047304;28;20024;-76
2022/08/25 04:11:30;;;;;;;8.30;7.50;;;;;;;18.44;82.24;101447.59;5047147;28;20107;-78
2022/08/25 04:13:57;;;;;;;9.05;7.90;;;;;;;18.36;81.56;101447.50;5046408;28;20087;-77
2022/08/25 04:16:25;;;;;;;14.07;8.10;;;;;;;18.34;80.91;101456.63;5048071;28;20025;-78
2022/08/25 04:18:52;;;;;;;12.77;7.72;;;;;;;18.38;79.51;101460.66;5048886;28;20491;-78
2022/08/25 04:21:19;;;;;;;9.95;7.75;;;;;;;18.40;79.08;101464.84;5048372;28;20505;-77
2022/08/25 04:23:47;;;;;;;14.88;7.97;;;;;;;18.40;78.93;101458.69;5046809;28;20017;-78
2022/08/25 04:26:20;;;;;;;18.20;7.93;;;;;;;18.47;77.20;101454.47;5048104;28;20087;-78
2022/08/25 04:28:46;;;;;;;11.07;7.78;;;;;;;18.46;77.97;101460.78;5046548;28;20033;-78
2022/08/25 04:31:13;;;;;;;10.60;7.40;;;;;;;18.58;75.83;101462.22;5044938;28;20417;-78
2022/08/25 04:33:40;;;;;;;13.15;7.93;;;;;;;18.63;75.16;101449.31;5048433;28;20032;-78
2022/08/25 04:36:07;;;;;;;13.80;8.00;;;;;;;18.67;74.94;101450.69;5048477;28;20048;-78
2022/08/25 04:38:33;;;;;;;12.93;7.88;;;;;;;18.62;74.82;101444.97;5049886;28;20120;-78
2022/08/25 04:41:02;;;;;;;8.98;7.65;;;;;;;18.61;75.08;101439.78;5048787;28;20025;-78
2022/08/25 04:43:30;;;;;;;14.23;7.80;;;;;;;18.60;74.52;101449.59;5048660;28;20056;-78
2022/08/25 04:45:59;;;;;;;15.15;8.10;;;;;;;18.63;74.04;101437.81;5044149;28;20121;-77
2022/08/25 04:48:25;;;;;;;12.43;8.20;;;;;;;18.67;73.54;101433.88;5049579;28;20043;-75
2022/08/25 04:50:54;;;;;;;10.73;7.70;;;;;;;18.67;73.14;101434.69;5047149;28;20534;-76
2022/08/25 04:53:20;;;;;;;10.73;7.40;;;;;;;18.63;73.84;101429.81;5046172;28;20032;-76
2022/08/25 04:55:47;;;;;;;10.68;7.70;;;;;;;18.65;73.64;101434.00;5049221;28;20021;-76
2022/08/25 04:58:14;;;;;;;13.90;7.60;;;;;;;18.64;73.44;101435.00;5047397;28;20017;-77
2022/08/25 05:00:40;;;;;;;8.55;6.80;;;;;;;18.66;73.42;101438.34;5048248;28;20394;-76
2022/08/25 05:03:07;;;;;;;16.50;7.18;;;;;;;18.71;71.93;101437.91;5045082;28;20433;-76
2022/08/25 05:05:36;;;;;;;9.68;7.10;;;;;;;18.71;72.22;101444.06;5047209;28;20103;-77
2022/08/25 05:08:01;;;;;;;7.60;6.43;;;;;;;18.72;72.20;101442.25;5047575;28;20032;-78
2022/08/25 05:10:26;;;;;;;10.02;7.20;;;;;;;18.73;72.86;101441.25;5047240;28;20029;-78
2022/08/25 05:12:52;;;;;;;10.65;6.35;;;;;;;18.75;73.35;101441.94;5047648;28;20071;-78
2022/08/25 05:18:01;;;;;;;12.93;6.60;;;;;;;18.78;73.44;101452.28;5044399;28;20036;-78
2022/08/25 05:20:29;;;;;;;10.73;6.05;;;;;;;18.75;73.17;101453.44;5046525;28;20414;-77
2022/08/25 05:22:55;;;;;;;7.75;6.25;;;;;;;18.78;72.92;101465.63;5046516;28;20025;-77
2022/08/25 05:25:21;;;;;;;9.68;6.38;;;;;;;18.82;72.28;101463.53;5046405;28;20091;-77
2022/08/25 05:27:46;;;;;;;9.93;6.68;;;;;;;18.84;73.65;101462.38;5045383;28;20048;-76
2022/08/25 05:30:11;;;;;;;10.70;6.43;;;;;;;19.04;73.72;101463.03;5046009;28;20116;-77
2022/08/25 05:32:37;;;;;;;8.68;5.95;;;;;;;19.22;73.01;101465.72;5047449;28;20092;-76
2022/08/25 05:35:05;;;;;;;8.25;6.00;;;;;;;19.64;71.70;101465.88;5044464;28;20021;-78
2022/08/25 05:37:31;;;;;;;8.75;5.78;;;;;;;19.86;70.21;101468.00;5048412;28;20024;-78
2022/08/25 05:39:57;;;;;;;10.00;5.28;;;;;;;20.03;70.42;101461.75;5047611;28;20090;-78
2022/08/25 05:42:22;;;;;;;11.25;5.88;;;;;;;20.12;70.04;101453.78;5081356;28;20025;-79
2022/08/25 05:44:47;;;;;;;7.43;5.20;;;;;;;20.16;68.40;101460.47;5047504;28;20045;-78
2022/08/25 05:47:13;;;;;;;12.18;5.47;;;;;;;20.12;68.57;101459.13;5047418;28;20104;-78
2022/08/25 05:49:38;;;;;;;9.10;5.30;;;;;;;20.15;68.00;101458.81;5047810;28;20114;-78
2022/08/25 05:52:03;;;;;;;10.38;5.00;;;;;;;20.14;66.44;101457.13;5046740;28;20649;-77
2022/08/25 05:54:30;;;;;;;8.85;5.20;;;;;;;20.12;67.32;101464.47;5048261;28;20079;-77
2022/08/25 05:56:59;;;;;;;7.88;4.90;;;;;;;20.17;66.20;101473.66;5051926;28;20236;-77
2022/08/25 05:59:25;;;;;;;9.52;4.95;;;;;;;20.18;66.84;101475.34;5051282;28;20037;-78
2022/08/25 06:04:34;;;;;;;13.00;4.72;;;;;;;20.23;66.00;101478.38;5042915;28;20047;-78
2022/08/25 06:07:00;;;;;;;8.43;4.63;;;;;;;20.29;64.75;101476.88;5048793;28;20033;-77
2022/08/25 06:09:25;;;;;;;11.40;4.90;;;;;;;20.39;64.62;101476.75;5050726;28;20033;-78
2022/08/25 06:11:54;;;;;;;10.57;4.90;;;;;;;20.44;64.92;101475.31;5051442;28;20029;-78
2022/08/25 06:14:19;;;;;;;11.60;4.68;;;;;;;20.52;64.28;101471.81;5050192;28;20482;-78
2022/08/25 06:16:44;;;;;;;11.10;4.70;;;;;;;20.53;63.38;101473.50;5050367;28;20028;-78
2022/08/25 06:19:10;;;;;;;13.18;4.53;;;;;;;20.63;63.07;101472.34;5049224;28;20390;-78
2022/08/25 06:21:38;;;;;;;10.55;4.30;;;;;;;20.69;63.66;101472.69;5048358;28;20048;-78
2022/08/25 06:24:04;;;;;;;16.38;4.72;;;;;;;20.81;61.68;101472.25;5047745;28;20025;-78
2022/08/25 06:26:30;;;;;;;10.55;4.63;;;;;;;20.83;62.18;101469.41;5049515;28;20035;-77
2022/08/25 06:28:55;;;;;;;10.35;4.53;;;;;;;20.98;60.87;101466.88;5050047;28;20017;-77
2022/08/25 06:31:21;;;;;;;10.88;4.70;;;;;;;21.07;60.72;101471.25;5045082;28;20044;-76
2022/08/25 06:33:47;;;;;;;11.95;4.82;;;;;;;21.17;59.94;101477.25;5047714;28;20033;-77
2022/08/25 06:36:14;;;;;;;16.10;4.80;;;;;;;21.32;58.85;101477.47;5049956;28;20044;-76
2022/08/25 06:38:39;;;;;;;8.57;4.22;;;;;;;21.36;58.80;101476.13;5047966;28;20013;-78
2022/08/25 06:41:06;;;;;;;10.30;4.35;;;;;;;21.47;58.50;101478.47;5047405;28;20056;-78
2022/08/25 06:43:32;;;;;;;13.25;4.72;;;;;;;21.57;57.69;101468.41;5050489;28;20084;-78
2022/08/25 06:46:09;;;;;;;10.77;3.90;;;;;;;21.71;57.66;101474.91;5050171;28;20044;-78
2022/08/25 06:48:34;;;;;;;10.57;4.38;;;;;;;21.84;56.59;101470.69;5050688;28;20143;-78
2022/08/25 06:51:03;;;;;;;14.50;4.07;;;;;;;21.94;56.58;101475.84;5049263;28;20048;-78
2022/08/25 06:53:29;;;;;;;7.57;4.43;;;;;;;22.07;55.80;101475.34;5052357;28;20029;-78
2022/08/25 06:55:56;;;;;;;12.35;4.18;;;;;;;22.12;55.75;101473.81;5050286;28;20437;-78
2022/08/25 06:58:21;;;;;;;9.77;4.38;;;;;;;22.24;55.98;101471.59;5051289;28;20075;-78
2022/08/25 07:00:47;;;;;;;8.63;4.40;;;;;;;22.41;54.35;101473.16;5084368;28;20494;-78
2022/08/25 07:03:12;;;;;;;11.30;4.05;;;;;;;22.58;53.84;101467.72;5050530;28;20029;-78
2022/08/25 07:05:38;;;;;;;12.00;4.70;;;;;;;22.73;54.00;101465.94;5048948;28;20025;-78
2022/08/25 07:08:03;;;;;;;9.98;4.40;;;;;;;22.91;53.24;101461.19;5049412;28;20115;-78
2022/08/25 07:10:28;;;;;;;12.05;4.10;;;;;;;23.10;54.43;101458.00;5048746;28;20043;-78
2022/08/25 07:12:54;;;;;;;9.68;3.80;;;;;;;23.26;53.51;101453.50;5047774;28;20667;-78
2022/08/25 07:15:19;;;;;;;10.77;3.97;;;;;;;23.36;52.08;101446.88;5050137;28;20029;-76
2022/08/25 07:17:45;;;;;;;12.52;4.22;;;;;;;23.47;51.71;101456.31;5050410;28;20028;-78
2022/08/25 07:20:10;;;;;;;10.60;4.50;;;;;;;23.55;51.27;101444.66;5047137;28;20144;-79
2022/08/25 07:22:36;;;;;;;10.32;4.10;;;;;;;23.77;51.47;101445.63;5048929;28;20181;-78
2022/08/25 07:25:02;;;;;;;8.43;4.10;;;;;;;23.96;51.05;101442.38;5048869;28;20488;-78
2022/08/25 07:27:27;;;;;;;10.93;4.00;;;;;;;24.24;49.84;101446.06;5047789;28;20025;-79
2022/08/25 07:29:53;;;;;;;12.85;4.25;;;;;;;24.54;49.82;101449.56;5049583;28;20024;-78
2022/08/25 07:32:18;;;;;;;9.73;4.15;;;;;;;24.74;48.95;101446.22;5048814;28;20102;-78
2022/08/25 07:37:27;;;;;;;7.38;3.75;;;;;;;25.08;48.30;101448.25;5049983;28;20118;-77
2022/08/25 07:39:53;;;;;;;8.77;3.72;;;;;;;25.24;49.16;101437.22;5048820;28;20519;-76
2022/08/25 07:42:18;;;;;;;9.90;3.90;;;;;;;25.44;47.39;101443.56;5048758;28;20033;-76
2022/08/25 07:44:44;;;;;;;7.30;3.65;;;;;;;25.66;46.66;101446.22;5048945;28;20414;-76
2022/08/25 07:47:09;;;;;;;11.82;4.03;;;;;;;25.84;46.56;101444.69;5050720;28;20027;-78
2022/08/25 07:49:34;;;;;;;10.23;3.63;;;;;;;26.01;45.64;101445.16;5082901;28;20115;-76
2022/08/25 07:52:00;;;;;;;12.32;3.60;;;;;;;26.15;45.19;101444.22;5047452;28;20107;-76
2022/08/25 07:54:26;;;;;;;9.90;3.80;;;;;;;26.33;45.23;101437.41;5048309;28;20036;-77
2022/08/25 07:56:52;;;;;;;8.73;3.58;;;;;;;26.41;44.41;101437.25;5050467;28;20052;-76
2022/08/25 07:59:18;;;;;;;12.60;3.92;;;;;;;26.61;44.19;101438.16;5048839;28;20493;-76
2022/08/25 08:01:43;;;;;;;7.95;3.38;;;;;;;26.76;44.01;101436.09;5048321;28;20020;-77
2022/08/25 08:04:08;;;;;;;12.15;3.55;;;;;;;26.92;43.53;101439.47;5047781;28;20470;-76
2022/08/25 08:06:34;;;;;;;6.50;3.33;;;;;;;27.14;43.19;101441.78;5049648;28;20086;-76
2022/08/25 08:09:01;;;;;;;9.02;3.65;;;;;;;27.45;42.45;101435.72;5046813;28;20017;-76
2022/08/25 08:11:32;;;;;;;11.43;3.40;;;;;;;27.58;42.40;101431.34;5048790;28;20029;-77
2022/08/25 08:13:58;;;;;;;8.55;3.10;;;;;;;27.71;42.90;101425.94;5048502;28;20056;-78
2022/08/25 08:16:26;;;;;;;8.07;3.25;;;;;;;27.85;41.51;101427.56;5047093;28;20067;-76
2022/08/25 08:18:55;;;;;;;9.40;3.17;;;;;;;27.85;41.94;101422.16;5046272;28;20047;-78
2022/08/25 08:21:25;;;;;;;8.23;3.05;;;;;;;27.99;41.43;101421.03;5044281;28;20056;-78
2022/08/25 08:23:55;;;;;;;7.38;3.20;;;;;;;28.31;41.70;101426.56;5047904;28;20035;-77
2022/08/25 08:26:22;;;;;;;5.95;2.90;;;;;;;28.48;41.85;101435.84;5048822;28;20025;-78
2022/08/25 08:28:47;;;;;;;10.07;3.22;;;;;;;28.48;41.00;101430.44;5049687;28;20025;-77
2022/08/25 08:31:13;;;;;;;9.63;3.28;;;;;;;28.73;40.38;101429.63;5047036;28;20087;-78
2022/08/25 08:33:38;;;;;;;7.80;3.20;;;;;;;28.91;39.65;101427.06;5047241;28;20025;-77
2022/08/25 08:36:08;;;;;;;9.38;2.70;;;;;;;29.02;39.76;101429.03;5045131;28;20017;-78
2022/08/25 08:38:35;;;;;;;8.25;2.97;;;;;;;29.21;39.23;101417.19;5045936;28;20100;-78
2022/08/25 08:44:16;;;;;;;11.70;2.90;;;;;;;29.45;38.22;101417.41;5047267;28;20067;-78
2022/08/25 08:47:09;;;;;;;6.32;2.90;;;;;;;29.52;40.73;101421.72;5048086;28;20025;-77
2022/08/25 08:49:59;;;;;;;9.30;3.05;;;;;;;29.63;39.80;101420.16;5048679;28;20076;-77
2022/08/25 08:52:37;;;;;;;6.63;3.00;;;;;;;29.77;39.18;101416.25;5046148;28;20508;-77
2022/08/25 08:55:08;;;;;;;9.25;2.95;;;;;;;29.85;37.70;101410.50;5048427;28;20041;-77
2022/08/25 08:57:43;;;;;;;8.15;2.70;;;;;;;30.07;38.06;101415.50;5049322;28;20108;-78
2022/08/25 09:00:09;;;;;;;5.53;2.80;;;;;;;30.17;37.25;101415.78;5049741;28;20028;-76
2022/08/25 09:02:58;;;;;;;10.52;3.00;;;;;;;30.28;38.25;101417.72;5049696;28;20530;-77
2022/08/25 09:05:27;;;;;;;6.05;2.72;;;;;;;30.44;35.48;101422.50;5041589;28;20120;-77
2022/08/25 09:07:59;;;;;;;8.70;2.97;;;;;;;30.52;35.26;101415.91;5050333;28;20390;-76
2022/08/25 09:10:27;;;;;;;;;;;;;;;30.78;39.20;101414.69;5050819;28;20033;-77
2022/08/25 09:13:42;;;;;;;6.25;2.58;;;;;;;30.88;37.06;101427.75;5082865;28;20375;-78
2022/08/25 09:19:04;;;;;;;8.02;2.83;;;;;;;31.19;36.00;101408.41;5047734;28;20043;-77
2022/08/25 09:21:38;;;;;;;6.10;2.35;;;;;;;31.24;35.36;101410.44;5047476;28;20029;-77
2022/08/25 09:24:16;;;;;;;11.20;2.70;;;;;;;31.15;35.83;101410.75;5047065;28;20021;-77
2022/08/25 09:26:57;;;;;;;10.20;2.85;;;;;;;31.24;33.86;101415.88;5047346;28;20441;-77
2022/08/25 09:29:29;;;;;;;5.47;2.63;;;;;;;31.17;33.96;101416.78;5050319;28;20021;-77
2022/08/25 09:31:56;;;;;;;;;;;;;;;31.35;35.70;101412.31;5048757;28;20029;-77
2022/08/25 09:34:27;;;;;;;7.90;2.47;;;;;;;31.24;34.18;101415.88;5082944;28;19916;-76
2022/08/25 09:36:52;;;;;;;7.13;2.53;;;;;;;31.31;34.03;101413.84;5050303;28;20059;-78
2022/08/25 09:39:19;;;;;;;6.70;2.38;;;;;;;31.45;33.16;101409.81;5051397;28;20041;-78
2022/08/25 09:41:49;;;;;;;8.70;2.55;;;;;;;31.58;33.46;101406.84;5051844;28;20029;-79
2022/08/25 09:44:26;;;;;;;5.25;2.53;;;;;;;31.86;34.19;101397.94;5050913;28;20047;-77
2022/08/25 09:47:05;;;;;;;10.73;2.88;;;;;;;32.08;34.65;101398.13;5049099;28;20025;-78
2022/08/25 09:49:40;;;;;;;8.43;2.40;;;;;;;32.25;32.32;101401.75;5047575;28;20029;-77
2022/08/25 09:52:27;;;;;;;6.63;2.45;;;;;;;32.41;32.38;101395.50;5051103;28;20024;-76
2022/08/25 09:54:54;;;;;;;9.10;2.28;;;;;;;32.30;30.57;101392.84;5051997;28;20032;-76
2022/08/25 09:57:47;;;;;;;4.55;2.13;;;;;;;32.44;33.42;101386.03;5052748;28;20390;-77
2022/08/25 10:00:25;;;;;;;6.45;2.40;;;;;;;32.64;32.79;101377.38;5050603;28;20048;-78
2022/08/25 10:03:19;;;;;;;8.10;2.15;;;;;;;32.74;31.83;101382.97;5050697;28;20064;-78
2022/08/25 10:06:10;;;;;;;3.70;1.98;;;;;;;32.90;30.98;101376.75;5032988;28;20021;-78
2022/08/25 10:08:50;;;;;;;6.40;2.10;;;;;;;32.76;32.05;101369.91;5055057;28;20403;-79
2022/08/25 10:11:32;;;;;;;7.82;1.92;;;;;;;33.19;30.80;101360.25;5030742;28;20017;-78
2022/08/25 10:14:14;;;;;;;6.18;2.00;;;;;;;33.17;28.01;101359.66;5031622;28;20033;-78
2022/08/25 10:16:39;;;;;;;5.47;2.10;;;;;;;33.02;27.92;101357.56;5031385;28;20029;-78
2022/08/25 10:19:09;;;;;;;2.65;1.85;;;;;;;32.98;27.90;101362.69;5035553;28;20074;-78
2022/08/25 10:21:37;;;;;;;3.35;1.85;;;;;;;33.01;28.37;101353.19;5077937;28;20026;-78
2022/08/25 10:24:04;;;;;;;4.10;1.92;;;;;;;32.88;29.13;101351.63;5030017;28;20400;-79
2022/08/25 10:26:47;;;;;;;5.70;1.85;;;;;;;32.83;27.84;101353.47;5032318;28;20021;-77
2022/08/25 10:29:25;;;;;;;2.92;1.70;;;;;;;32.67;28.74;101344.16;5028919;28;20041;-77
2022/08/25 10:32:08;;;;;;;2.88;1.80;;;;;;;32.80;29.47;101335.66;5031167;28;20030;-77
2022/08/25 10:34:46;;;;;;;3.22;1.70;;;;;;;32.73;28.55;101338.53;5029511;28;20048;-78
2022/08/25 10:37:27;;;;;;;2.55;1.65;;;;;;;32.58;29.06;101334.75;5043435;28;20107;-78
2022/08/25 10:40:06;;;;;;;3.58;1.83;;;;;;;32.45;28.05;101335.09;5050234;28;20105;-78
2022/08/25 10:43:07;;;;;;;4.07;1.70;;;;;;;32.47;28.02;101333.75;5081147;28;20056;-77
2022/08/25 10:45:48;;;;;;;6.82;1.83;;;;;;;32.38;29.19;101321.59;5045858;28;20052;-77
2022/08/25 10:48:31;;;;;;;5.10;1.90;;;;;;;32.37;29.89;101318.03;5082325;28;20020;-77
2022/08/25 10:51:06;;;;;;;4.13;2.00;;;;;;;32.35;29.52;101325.63;5049572;28;20028;-77
2022/08/25 10:53:59;;;;;;;5.53;1.60;;;;;;;32.36;28.96;101316.41;5048237;28;20074;-78
2022/08/25 10:56:49;;;;;;;5.93;1.60;;;;;;;32.46;29.35;101309.50;5049745;28;20029;-78
2022/08/25 10:59:21;;;;;;;6.40;1.73;;;;;;;32.49;29.18;101306.28;5049827;28;20021;-77
2022/08/25 11:01:46;;;;;;;;;;;;;;;32.67;30.48;101306.81;5051172;28;20036;-78
2022/08/25 11:04:19;;;;;;;5.00;1.90;;;;;;;32.63;29.24;101307.56;5047686;28;19974;-77
2022/08/25 11:06:59;;;;;;;5.72;2.30;;;;;;;32.68;30.18;101302.19;5051003;28;20100;-78
2022/08/25 11:09:33;;;;;;;8.20;2.30;;;;;;;32.91;29.97;101298.50;5048526;28;20544;-76
2022/08/25 11:12:05;;;;;;;7.25;2.15;;;;;;;33.18;30.58;101302.13;5050354;28;20078;-78
2022/08/25 11:14:37;;;;;;;6.73;2.37;;;;;;;33.44;29.84;101300.59;5051855;28;20092;-77
2022/08/25 11:17:10;;;;;;;4.75;2.47;;;;;;;33.42;30.17;101294.56;5050321;28;20370;-77
2022/08/25 11:19:47;;;;;;;6.18;2.55;;;;;;;33.56;30.52;101295.00;5050113;28;20029;-76
2022/08/25 11:22:15;;;;;;;3.00;2.38;;;;;;;33.46;29.27;101287.53;5049118;28;20040;-79
2022/08/25 11:24:54;;;;;;;8.88;2.40;;;;;;;33.47;29.81;101286.44;5050528;28;20123;-78
2022/08/25 11:27:22;;;;;;;4.38;2.13;;;;;;;33.37;29.54;101277.31;5049196;28;20029;-79
2022/08/25 11:30:02;;;;;;;9.25;2.40;;;;;;;33.67;29.62;101274.13;5049704;28;20025;-78
2022/08/25 11:32:32;;;;;;;4.75;2.28;;;;;;;33.81;28.03;101280.81;5035245;28;20111;-78
2022/08/25 11:34:59;;;;;;;3.15;2.30;;;;;;;34.02;27.95;101279.13;5060478;28;20059;-76
2022/08/25 11:37:28;;;;;;;4.00;2.40;;;;;;;34.07;27.29;101280.03;5028064;28;20155;-78
2022/08/25 11:40:10;;;;;;;7.70;2.25;;;;;;;34.08;27.40;101278.94;5028660;28;20403;-77
2022/08/25 11:42:44;;;;;;;4.50;1.92;;;;;;;34.11;27.60;101272.97;5071507;28;20025;-77
2022/08/25 11:45:45;;;;;;;4.60;2.08;;;;;;;34.14;26.96;101282.53;5048048;28;20087;-76
2022/08/25 11:48:22;;;;;;;4.38;1.90;;;;;;;34.22;26.79;101274.69;5048978;28;20029;-77
2022/08/25 11:51:09;;;;;;;6.25;1.98;;;;;;;34.28;27.89;101274.72;5081972;28;20025;-78